CYQL

Lethbridge County Airport

Lethbridge, Alberta, Canada
TAF CYQL 190538Z 1906/1918 VRB03KT P6SM FEW150 SCT300 BECMG 1912/1914 22005KT FM191600 14005KT P6SM SKC BECMG 1917/1918 09005KT RMK FCST BASED ON AUTO OBS. NXT FCST BY 191200Z
Issued Valid From Valid To
Oct-19 @ 05:38 UTC
(3 hours ago)
Oct-19 @ 06:00 UTC
(3 hours ago)
Oct-19 @ 18:00 UTC
(in 9 hours)
Oct-19 @ 06:00 to Oct-19 @ 12:00
TAF CYQL 190538Z 1906/1918 VRB03KT P6SM FEW150 SCT300
Wind Visibility Clouds
Variable at 3 knots Greater than 6 miles
  • Few at 15,000' AGL
  • Scattered at 30,000' AGL
Becoming Oct-19 @ 12:00 to Oct-19 @ 16:00
BECMG 1912/1914 22005KT
Wind Visibility Clouds
220° at 5 knots Greater than 6 miles
  • Few at 15,000' AGL
  • Scattered at 30,000' AGL
From Oct-19 @ 16:00 to Oct-19 @ 17:00
FM191600 14005KT P6SM SKC
Wind Visibility Clouds
140° at 5 knots Greater than 6 miles
  • Clear skies
Becoming Oct-19 @ 17:00 to Oct-19 @ 18:00
BECMG 1917/1918 09005KT RMK FCST BASED ON AUTO OBS. NXT FCST BY 191200Z
Wind Visibility Clouds
90° at 5 knots Greater than 6 miles
  • Clear skies
TAF CYQL 190538Z 1906/1918 VRB03KT P6SM FEW150 SCT300 BECMG 1912/1914 22005KT FM191600 14005KT P6SM SKC BECMG 1917/1918 09005KT RMK FCST BASED ON AUTO OBS. NXT FCST BY 191200Z
Issued Oct-19 @ 05:38 UTC
(3 hours ago)
Valid From Oct-19 @ 06:00 UTC
(3 hours ago)
Valid To Oct-19 @ 18:00 UTC
(in 9 hours)
Oct-19 @ 06:00 - Oct-19 @ 12:00
Wind Visibility
Variable at 3 knots Greater than 6 miles
Clouds
  • Few at 15,000' AGL
  • Scattered at 30,000' AGL
Becoming Oct-19 @ 12:00 - Oct-19 @ 16:00
Wind Visibility
220° at 5 knots Greater than 6 miles
Clouds
  • Few at 15,000' AGL
  • Scattered at 30,000' AGL
From Oct-19 @ 16:00 - Oct-19 @ 17:00
Wind Visibility
140° at 5 knots Greater than 6 miles
Clouds
  • Clear skies
Becoming Oct-19 @ 17:00 - Oct-19 @ 18:00
Wind Visibility
90° at 5 knots Greater than 6 miles
Clouds
  • Clear skies